createdAt,value
2023-02-23T00:02:09.810Z,22.76
2023-02-23T00:04:41.134Z,23.39
2023-02-23T00:07:13.262Z,23.35
2023-02-23T00:09:44.502Z,23.40
2023-02-23T00:12:18.323Z,23.43
2023-02-23T00:14:49.719Z,23.36
2023-02-23T00:17:20.810Z,23.23
2023-02-23T00:19:52.282Z,23.10
2023-02-23T00:22:23.450Z,23.71
2023-02-23T00:24:55.401Z,23.50
2023-02-23T00:27:26.709Z,23.24
2023-02-23T00:30:00.999Z,23.33
2023-02-23T00:32:34.599Z,23.41
2023-02-23T00:35:06.027Z,23.68
2023-02-23T00:37:39.073Z,23.76
2023-02-23T00:40:16.027Z,23.55
2023-02-23T00:42:47.816Z,23.42
2023-02-23T00:45:19.227Z,23.47
2023-02-23T00:47:50.286Z,23.18
2023-02-23T00:50:21.381Z,23.39
2023-02-23T00:52:52.637Z,23.57
2023-02-23T00:55:23.417Z,23.61
2023-02-23T00:57:54.424Z,23.81
2023-02-23T01:00:27.160Z,23.84
2023-02-23T01:02:59.121Z,23.98
2023-02-23T01:05:29.449Z,23.90
2023-02-23T01:08:01.030Z,24.02
2023-02-23T01:10:32.466Z,23.64
2023-02-23T01:13:04.033Z,23.78
2023-02-23T01:15:35.440Z,23.73
2023-02-23T01:18:06.670Z,23.87
2023-02-23T01:20:38.217Z,23.99
2023-02-23T01:23:08.926Z,23.76
2023-02-23T01:25:40.094Z,23.79
2023-02-23T01:28:12.612Z,23.83
2023-02-23T01:30:43.899Z,23.79
2023-02-23T01:33:15.523Z,24.04
2023-02-23T01:35:47.144Z,23.99
2023-02-23T01:38:18.056Z,24.10
2023-02-23T01:40:50.720Z,23.86
2023-02-23T01:43:27.509Z,24.29
2023-02-23T01:46:02.238Z,24.01
2023-02-23T01:48:42.215Z,24.21
2023-02-23T01:51:17.768Z,24.22
2023-02-23T01:54:03.091Z,24.01
2023-02-23T01:56:44.815Z,23.52
2023-02-23T01:59:17.013Z,23.61
2023-02-23T02:01:49.686Z,23.60
2023-02-23T02:04:22.214Z,23.09
2023-02-23T02:06:55.205Z,22.94
2023-02-23T02:09:29.611Z,22.95
2023-02-23T02:12:04.086Z,23.43
2023-02-23T02:14:35.807Z,23.38
2023-02-23T02:17:15.904Z,23.26
2023-02-23T02:20:34.263Z,23.31
2023-02-23T02:23:20.460Z,23.88
2023-02-23T02:26:39.246Z,24.11
2023-02-23T02:29:40.726Z,24.49
2023-02-23T02:32:25.544Z,23.87
2023-02-23T02:35:20.441Z,23.69
2023-02-23T02:38:05.178Z,24.00
2023-02-23T02:40:54.704Z,23.54
2023-02-23T02:43:52.348Z,23.87
2023-02-23T02:46:33.298Z,23.06
2023-02-23T02:49:20.910Z,23.19
2023-02-23T02:52:02.462Z,23.13
2023-02-23T02:54:32.930Z,23.28
2023-02-23T02:57:05.818Z,23.33
2023-02-23T03:00:05.642Z,23.28
2023-02-23T03:02:58.494Z,23.07
2023-02-23T03:06:02.361Z,22.77
2023-02-23T03:09:06.722Z,22.53
2023-02-23T03:12:14.482Z,21.67
2023-02-23T03:15:32.576Z,20.86
2023-02-23T03:18:41.314Z,20.51
2023-02-23T03:21:38.246Z,20.45
2023-02-23T03:24:37.221Z,20.35
2023-02-23T03:27:43.752Z,20.56
2023-02-23T03:30:50.753Z,20.39
2023-02-23T03:33:50.710Z,20.58
2023-02-23T03:36:45.661Z,20.27
2023-02-23T03:39:53.546Z,20.17
2023-02-23T03:42:46.814Z,20.26
2023-02-23T03:45:39.491Z,20.45
2023-02-23T03:48:30.780Z,20.30
2023-02-23T03:51:23.540Z,20.38
2023-02-23T03:54:22.097Z,20.46
2023-02-23T03:57:12.673Z,20.68
2023-02-23T04:00:08.142Z,20.78
2023-02-23T04:03:03.884Z,21.06
2023-02-23T04:05:56.666Z,21.05
2023-02-23T04:08:58.254Z,21.11
2023-02-23T04:12:34.467Z,20.91
2023-02-23T04:15:27.058Z,21.09
2023-02-23T04:17:58.843Z,20.74
2023-02-23T04:20:29.969Z,20.88
2023-02-23T04:23:01.164Z,20.95
2023-02-23T04:25:33.132Z,20.58
2023-02-23T04:28:04.938Z,20.28
2023-02-23T04:30:35.404Z,20.51
2023-02-23T04:33:06.519Z,20.24
2023-02-23T04:35:38.118Z,20.45
2023-02-23T04:38:09.713Z,19.63
2023-02-23T04:40:40.219Z,20.11
2023-02-23T04:43:14.588Z,20.05
2023-02-23T04:45:46.623Z,19.96
2023-02-23T04:48:17.702Z,19.72
2023-02-23T04:50:48.910Z,19.89
2023-02-23T04:53:19.758Z,19.61
2023-02-23T04:55:51.120Z,19.38
2023-02-23T04:58:22.291Z,19.70
2023-02-23T05:00:53.380Z,19.48
2023-02-23T05:03:24.826Z,19.61
2023-02-23T05:05:56.192Z,19.56
2023-02-23T05:08:26.731Z,19.37
2023-02-23T05:10:57.599Z,19.47
2023-02-23T05:13:28.758Z,19.68
2023-02-23T05:16:00.267Z,19.56
2023-02-23T05:18:31.696Z,19.24
2023-02-23T05:21:08.413Z,19.08
2023-02-23T05:23:40.066Z,19.03
2023-02-23T05:26:11.763Z,19.14
2023-02-23T05:28:44.349Z,18.94
2023-02-23T05:31:15.629Z,19.04
2023-02-23T05:33:47.202Z,18.80
2023-02-23T05:36:19.220Z,18.90
2023-02-23T05:38:50.603Z,18.89
2023-02-23T05:41:24.302Z,18.95
2023-02-23T05:43:57.020Z,18.88
2023-02-23T05:46:28.784Z,18.84
2023-02-23T05:49:01.593Z,18.74
2023-02-23T05:51:34.133Z,18.76
2023-02-23T05:54:05.066Z,18.64
2023-02-23T05:56:37.182Z,18.65
2023-02-23T05:59:08.112Z,18.81
2023-02-23T06:01:39.319Z,18.78
2023-02-23T06:04:10.342Z,19.02
2023-02-23T06:06:41.808Z,18.98
2023-02-23T06:09:13.048Z,18.96
2023-02-23T06:11:44.231Z,19.01
2023-02-23T06:14:15.473Z,19.01
2023-02-23T06:16:49.817Z,18.84
2023-02-23T06:19:20.884Z,18.73
2023-02-23T06:21:51.945Z,18.84
2023-02-23T06:24:23.022Z,18.72
2023-02-23T06:26:54.403Z,18.65
2023-02-23T06:29:25.578Z,18.57
2023-02-23T06:31:58.494Z,18.68
2023-02-23T06:34:31.161Z,18.72
2023-02-23T06:37:03.504Z,18.65
2023-02-23T06:39:34.745Z,18.37
2023-02-23T06:42:05.979Z,18.60
2023-02-23T06:44:38.645Z,18.53
2023-02-23T06:47:10.473Z,18.34
2023-02-23T06:49:42.027Z,18.50
2023-02-23T06:52:16.324Z,18.50
2023-02-23T06:54:47.314Z,18.49
2023-02-23T06:57:18.541Z,18.40
2023-02-23T06:59:49.453Z,18.25
2023-02-23T07:02:20.520Z,18.32
2023-02-23T07:04:51.744Z,18.38
2023-02-23T07:07:22.975Z,18.42
2023-02-23T07:09:54.004Z,18.42
2023-02-23T07:12:25.131Z,18.35
2023-02-23T07:14:56.373Z,18.47
2023-02-23T07:17:28.230Z,18.42
2023-02-23T07:19:59.822Z,18.31
2023-02-23T07:22:31.779Z,18.19
2023-02-23T07:25:02.839Z,18.29
2023-02-23T07:27:34.107Z,18.30
2023-02-23T07:30:05.850Z,18.40
2023-02-23T07:32:37.089Z,18.30
2023-02-23T07:35:12.672Z,18.21
2023-02-23T07:37:44.121Z,18.22
2023-02-23T07:40:15.809Z,18.21
2023-02-23T07:42:46.365Z,18.23
2023-02-23T07:45:18.773Z,18.21
2023-02-23T07:47:50.331Z,18.23
2023-02-23T07:50:21.608Z,18.16
2023-02-23T07:52:53.698Z,18.09
2023-02-23T07:55:24.801Z,18.23
2023-02-23T07:57:56.254Z,18.20
2023-02-23T08:00:28.616Z,18.05
2023-02-23T08:02:59.657Z,18.07
2023-02-23T08:05:31.293Z,18.16
2023-02-23T08:08:02.537Z,18.10
2023-02-23T08:10:33.999Z,18.02
2023-02-23T08:13:05.364Z,18.08
2023-02-23T08:15:36.657Z,18.11
2023-02-23T08:18:08.040Z,18.00
2023-02-23T08:20:39.248Z,18.03
2023-02-23T08:23:10.255Z,17.98
2023-02-23T08:25:41.239Z,17.99
2023-02-23T08:28:12.809Z,18.03
2023-02-23T08:30:44.264Z,18.11
2023-02-23T08:33:15.406Z,18.10
2023-02-23T08:35:46.754Z,18.06
2023-02-23T08:38:19.690Z,18.05
2023-02-23T08:40:50.877Z,18.06
2023-02-23T08:43:22.330Z,18.03
2023-02-23T08:45:53.431Z,18.08
2023-02-23T08:48:25.815Z,18.08
2023-02-23T08:51:00.883Z,17.96
2023-02-23T08:53:32.254Z,17.95
2023-02-23T08:56:05.409Z,17.96
2023-02-23T08:58:37.297Z,18.01
2023-02-23T09:01:08.600Z,17.99
2023-02-23T09:03:40.685Z,17.99
2023-02-23T09:06:15.224Z,17.93
2023-02-23T09:08:46.685Z,17.97
2023-02-23T09:11:18.172Z,17.82
2023-02-23T09:13:49.516Z,17.92
2023-02-23T09:16:21.060Z,17.83
2023-02-23T09:18:53.270Z,17.81
2023-02-23T09:21:26.479Z,17.70
2023-02-23T09:23:57.875Z,17.73
2023-02-23T09:26:30.790Z,17.67
2023-02-23T09:29:02.894Z,17.62
2023-02-23T09:31:34.320Z,17.67
2023-02-23T09:34:05.592Z,17.62
2023-02-23T09:36:36.523Z,17.65
2023-02-23T09:39:07.705Z,17.53
2023-02-23T09:42:05.584Z,17.54
2023-02-23T09:44:48.085Z,17.47
2023-02-23T09:47:31.157Z,17.42
2023-02-23T09:50:06.431Z,17.53
2023-02-23T09:52:47.600Z,17.42
2023-02-23T09:55:19.252Z,17.47
2023-02-23T09:57:51.657Z,17.45
2023-02-23T10:00:31.221Z,17.47
2023-02-23T10:03:24.467Z,17.47
2023-02-23T10:06:02.740Z,17.37
2023-02-23T10:08:49.173Z,17.28
2023-02-23T10:11:47.280Z,17.32
2023-02-23T10:14:27.377Z,17.26
2023-02-23T10:17:39.836Z,17.14
2023-02-23T10:20:32.389Z,17.01
2023-02-23T10:23:09.439Z,16.83
2023-02-23T10:25:45.600Z,16.85
2023-02-23T10:28:23.275Z,16.77
2023-02-23T10:30:56.528Z,16.75
2023-02-23T10:33:37.750Z,16.71
2023-02-23T10:36:37.057Z,16.70
2023-02-23T10:39:09.689Z,16.63
2023-02-23T10:41:41.601Z,16.53
2023-02-23T10:44:20.112Z,16.56
2023-02-23T10:46:58.756Z,16.47
2023-02-23T10:49:46.543Z,16.40
2023-02-23T10:52:41.555Z,16.35
2023-02-23T10:55:31.292Z,16.36
2023-02-23T10:58:18.233Z,16.36
2023-02-23T11:01:05.094Z,16.35
2023-02-23T11:03:39.698Z,16.31
2023-02-23T11:06:42.125Z,16.23
2023-02-23T11:09:47.018Z,16.25
2023-02-23T11:12:26.538Z,16.20
2023-02-23T11:14:59.770Z,16.33
2023-02-23T11:17:35.795Z,16.37
2023-02-23T11:20:08.573Z,16.44
2023-02-23T11:22:43.808Z,16.32
2023-02-23T11:25:35.217Z,16.35
2023-02-23T11:28:06.160Z,16.41
2023-02-23T11:30:44.375Z,16.39
2023-02-23T11:33:21.600Z,16.47
2023-02-23T11:36:01.222Z,16.41
2023-02-23T11:38:33.997Z,16.44
2023-02-23T11:41:23.361Z,16.41
2023-02-23T11:43:59.978Z,16.51
2023-02-23T11:46:32.800Z,16.45
2023-02-23T11:49:20.407Z,16.47
2023-02-23T11:51:56.345Z,16.50
2023-02-23T11:54:30.396Z,16.41
2023-02-23T11:57:04.003Z,16.46
2023-02-23T11:59:41.098Z,16.44
2023-02-23T12:02:26.346Z,16.37
2023-02-23T12:05:16.742Z,16.25
2023-02-23T12:08:05.086Z,16.42
2023-02-23T12:10:46.275Z,16.46
2023-02-23T12:13:23.198Z,16.51
2023-02-23T12:16:15.626Z,16.38
2023-02-23T12:19:00.434Z,16.40
2023-02-23T12:21:37.429Z,16.45
2023-02-23T12:24:36.176Z,16.45
2023-02-23T12:27:18.781Z,16.54
2023-02-23T12:30:01.561Z,16.49
2023-02-23T12:32:52.707Z,16.48
2023-02-23T12:35:47.013Z,16.41
2023-02-23T12:38:32.278Z,16.41
2023-02-23T12:41:19.595Z,16.31
2023-02-23T12:43:59.748Z,16.40
2023-02-23T12:46:37.863Z,16.40
2023-02-23T12:49:18.458Z,16.39
2023-02-23T12:52:16.202Z,16.47
2023-02-23T12:54:50.528Z,16.45
2023-02-23T12:57:43.994Z,16.36
2023-02-23T13:00:33.307Z,16.45
2023-02-23T13:03:18.891Z,16.44
2023-02-23T13:05:59.188Z,16.32
2023-02-23T13:09:10.810Z,16.18
2023-02-23T13:12:22.422Z,16.23
2023-02-23T13:14:59.963Z,16.18
2023-02-23T13:17:41.897Z,16.01
2023-02-23T13:20:22.943Z,16.07
2023-02-23T13:23:14.075Z,15.99
2023-02-23T13:26:02.045Z,15.88
2023-02-23T13:28:39.492Z,15.94
2023-02-23T13:31:40.700Z,15.88
2023-02-23T13:34:30.106Z,15.95
2023-02-23T13:37:03.499Z,15.82
2023-02-23T13:39:57.402Z,15.98
2023-02-23T13:42:39.212Z,15.91
2023-02-23T13:45:41.044Z,15.87
2023-02-23T13:48:21.085Z,15.86
2023-02-23T13:51:00.996Z,15.91
2023-02-23T13:54:01.281Z,15.92
2023-02-23T13:56:44.505Z,15.84
2023-02-23T13:59:21.152Z,15.89
2023-02-23T14:01:57.314Z,15.91
2023-02-23T14:04:47.092Z,15.92
2023-02-23T14:07:28.046Z,15.78
2023-02-23T14:10:08.271Z,15.82
2023-02-23T14:12:45.261Z,15.88
2023-02-23T14:15:42.987Z,16.03
2023-02-23T14:18:34.697Z,15.94
2023-02-23T14:21:11.892Z,16.02
2023-02-23T14:24:06.602Z,15.98
2023-02-23T14:26:44.653Z,15.96
2023-02-23T14:29:23.002Z,16.03
2023-02-23T14:32:12.772Z,15.94
2023-02-23T14:35:04.001Z,15.90
2023-02-23T14:37:39.502Z,15.97
2023-02-23T14:40:23.565Z,16.07
2023-02-23T14:42:57.834Z,16.02
2023-02-23T14:45:33.843Z,16.05
2023-02-23T14:48:09.023Z,16.09
2023-02-23T14:50:40.885Z,16.08
2023-02-23T14:53:38.156Z,16.15
2023-02-23T14:56:26.177Z,16.15
2023-02-23T14:59:00.681Z,16.24
2023-02-23T15:01:40.149Z,16.20
2023-02-23T15:04:16.425Z,16.14
2023-02-23T15:06:50.466Z,16.19
2023-02-23T15:09:45.113Z,16.15
2023-02-23T15:12:24.296Z,16.17
2023-02-23T15:15:03.340Z,16.19
2023-02-23T15:17:35.996Z,16.13
2023-02-23T15:23:04.932Z,16.20
2023-02-23T15:25:40.130Z,16.30
2023-02-23T15:28:34.435Z,16.10
2023-02-23T15:31:10.422Z,16.09
2023-02-23T15:33:44.033Z,16.04
2023-02-23T15:36:36.119Z,16.08
2023-02-23T15:39:08.916Z,16.05
2023-02-23T15:41:41.324Z,16.07
2023-02-23T15:44:18.422Z,16.05
2023-02-23T15:46:54.528Z,16.07
2023-02-23T15:49:29.912Z,16.17
2023-02-23T15:52:08.126Z,16.08
2023-02-23T15:55:01.499Z,16.05
2023-02-23T15:57:36.441Z,16.07
2023-02-23T16:00:26.106Z,16.02
2023-02-23T16:02:59.261Z,16.12
2023-02-23T16:05:46.652Z,15.99
2023-02-23T16:08:28.600Z,16.06
2023-02-23T16:11:17.468Z,16.04
2023-02-23T16:13:49.166Z,16.01
2023-02-23T16:16:21.454Z,15.95
2023-02-23T16:19:02.737Z,15.88
2023-02-23T16:21:33.899Z,15.94
2023-02-23T16:24:10.520Z,15.85
2023-02-23T16:27:03.575Z,15.90
2023-02-23T16:29:43.001Z,15.90
2023-02-23T16:32:20.167Z,15.89
2023-02-23T16:34:56.315Z,15.91
2023-02-23T16:37:29.483Z,15.80
2023-02-23T16:40:01.629Z,15.71
2023-02-23T16:42:36.868Z,15.78
2023-02-23T16:45:09.369Z,15.73
2023-02-23T16:47:50.818Z,15.72
2023-02-23T16:50:22.690Z,15.81
2023-02-23T16:52:55.510Z,15.81
2023-02-23T16:55:30.807Z,15.73
2023-02-23T16:58:05.745Z,15.70
2023-02-23T17:00:37.019Z,15.72
2023-02-23T17:03:10.737Z,15.80
2023-02-23T17:05:41.744Z,15.72
2023-02-23T17:08:13.103Z,15.74
2023-02-23T17:10:45.456Z,15.66
2023-02-23T17:13:21.584Z,15.66
2023-02-23T17:15:55.362Z,15.68
2023-02-23T17:18:29.703Z,15.76
2023-02-23T17:21:03.096Z,15.74
2023-02-23T17:23:40.539Z,15.71
2023-02-23T17:26:13.095Z,15.79
2023-02-23T17:28:44.711Z,15.71
2023-02-23T17:31:17.968Z,15.64
2023-02-23T17:33:49.813Z,15.70
2023-02-23T17:36:21.106Z,15.69
2023-02-23T17:38:52.281Z,15.69
2023-02-23T17:41:23.772Z,15.62
2023-02-23T17:43:55.235Z,15.61
2023-02-23T17:46:26.635Z,15.56
2023-02-23T17:48:58.256Z,15.35
2023-02-23T17:51:29.145Z,15.21
2023-02-23T17:54:00.439Z,15.24
2023-02-23T17:56:33.098Z,15.23
2023-02-23T17:59:04.469Z,15.07
2023-02-23T18:01:35.396Z,14.94
2023-02-23T18:04:06.880Z,14.88
2023-02-23T18:06:38.144Z,14.54
2023-02-23T18:09:09.770Z,14.88
2023-02-23T18:11:40.924Z,14.85
2023-02-23T18:14:15.278Z,14.74
2023-02-23T18:16:47.498Z,14.67
2023-02-23T18:19:18.502Z,14.62
2023-02-23T18:21:49.547Z,14.63
2023-02-23T18:24:20.512Z,14.75
2023-02-23T18:26:51.932Z,14.54
2023-02-23T18:29:23.038Z,14.47
2023-02-23T18:31:54.972Z,14.51
2023-02-23T18:34:27.212Z,14.38
2023-02-23T18:37:03.702Z,14.31
2023-02-23T18:39:35.179Z,14.33
2023-02-23T18:42:06.467Z,14.30
2023-02-23T18:44:37.633Z,14.41
2023-02-23T18:47:08.741Z,14.47
2023-02-23T18:49:39.716Z,14.53
2023-02-23T18:52:13.606Z,14.60
2023-02-23T18:54:44.837Z,14.64
2023-02-23T18:57:17.519Z,14.79
2023-02-23T18:59:49.094Z,14.81
2023-02-23T19:02:20.250Z,14.91
2023-02-23T19:04:51.217Z,14.91
2023-02-23T19:07:22.431Z,15.02
2023-02-23T19:09:53.434Z,15.13
2023-02-23T19:12:24.306Z,15.24
2023-02-23T19:14:55.432Z,15.24
2023-02-23T19:17:27.844Z,15.35
2023-02-23T19:19:59.071Z,15.78
2023-02-23T19:22:33.464Z,15.95
2023-02-23T19:25:06.672Z,15.89
2023-02-23T19:27:37.894Z,15.78
2023-02-23T19:30:11.448Z,15.78
2023-02-23T19:32:44.186Z,15.70
2023-02-23T19:35:17.807Z,15.62
2023-02-23T19:37:54.367Z,15.61
2023-02-23T19:40:30.571Z,15.67
2023-02-23T19:43:01.782Z,15.68
2023-02-23T19:45:32.828Z,15.74
2023-02-23T19:48:04.242Z,15.79
2023-02-23T19:50:37.353Z,15.81
2023-02-23T19:53:08.671Z,16.02
2023-02-23T19:55:43.071Z,16.21
2023-02-23T19:58:14.667Z,16.44
2023-02-23T20:00:46.697Z,16.57
2023-02-23T20:03:21.318Z,16.56
2023-02-23T20:05:52.435Z,16.66
2023-02-23T20:08:27.746Z,16.67
2023-02-23T20:10:59.220Z,16.60
2023-02-23T20:13:30.427Z,17.03
2023-02-23T20:16:10.622Z,18.04
2023-02-23T20:18:42.911Z,18.45
2023-02-23T20:21:19.343Z,18.61
2023-02-23T20:23:51.356Z,18.10
2023-02-23T20:26:36.711Z,17.75
2023-02-23T20:29:12.562Z,17.62
2023-02-23T20:31:52.018Z,17.63
2023-02-23T20:34:25.259Z,17.48
2023-02-23T20:36:57.194Z,17.37
2023-02-23T20:39:28.608Z,17.20
2023-02-23T20:41:59.276Z,17.23
2023-02-23T20:44:31.700Z,17.18
2023-02-23T20:47:03.322Z,17.12
2023-02-23T20:49:34.199Z,16.86
2023-02-23T20:52:06.281Z,17.09
2023-02-23T20:54:38.153Z,16.98
2023-02-23T20:57:11.412Z,16.87
2023-02-23T20:59:44.542Z,16.93
2023-02-23T21:02:16.612Z,16.92
2023-02-23T21:04:48.040Z,16.95
2023-02-23T21:07:19.379Z,16.93
2023-02-23T21:09:50.453Z,17.16
2023-02-23T21:12:21.729Z,17.13
2023-02-23T21:14:52.879Z,17.01
2023-02-23T21:17:24.756Z,16.95
2023-02-23T21:19:55.700Z,17.29
2023-02-23T21:22:26.930Z,17.32
2023-02-23T21:24:58.310Z,17.23
2023-02-23T21:27:29.983Z,17.32
2023-02-23T21:30:01.053Z,17.16
2023-02-23T21:32:33.807Z,17.24
2023-02-23T21:35:05.795Z,17.19
2023-02-23T21:37:37.246Z,17.24
2023-02-23T21:40:11.562Z,17.40
2023-02-23T21:42:43.796Z,17.48
2023-02-23T21:45:16.031Z,17.59
2023-02-23T21:47:47.036Z,17.72
2023-02-23T21:50:20.364Z,18.00
2023-02-23T21:52:55.467Z,17.96
2023-02-23T21:55:26.884Z,17.58
2023-02-23T21:57:59.527Z,17.95
2023-02-23T22:00:35.065Z,18.16
2023-02-23T22:03:06.231Z,18.47
2023-02-23T22:05:37.111Z,18.62
2023-02-23T22:08:08.102Z,18.51
2023-02-23T22:10:39.518Z,18.67
2023-02-23T22:13:11.038Z,18.60
2023-02-23T22:15:42.019Z,18.80
2023-02-23T22:18:15.677Z,18.86
2023-02-23T22:20:47.396Z,18.96
2023-02-23T22:23:19.351Z,19.11
2023-02-23T22:25:51.035Z,19.39
2023-02-23T22:28:22.402Z,19.30
2023-02-23T22:30:53.668Z,19.79
2023-02-23T22:33:25.832Z,19.80
2023-02-23T22:35:58.633Z,20.29
2023-02-23T22:38:30.098Z,20.39
2023-02-23T22:41:01.464Z,20.69
2023-02-23T22:43:35.500Z,21.72
2023-02-23T22:46:08.987Z,21.27
2023-02-23T22:48:40.189Z,21.87
2023-02-23T22:51:13.019Z,21.62
2023-02-23T22:53:44.811Z,22.18
2023-02-23T22:56:16.191Z,22.10
2023-02-23T22:58:51.081Z,21.84
2023-02-23T23:01:22.246Z,22.26
2023-02-23T23:03:52.916Z,21.62
2023-02-23T23:06:24.329Z,21.52
2023-02-23T23:08:59.613Z,21.76
2023-02-23T23:11:31.438Z,21.70
2023-02-23T23:14:08.304Z,21.26
2023-02-23T23:16:53.001Z,21.40
2023-02-23T23:19:25.394Z,20.89
2023-02-23T23:21:57.572Z,20.59
2023-02-23T23:24:28.892Z,20.52
2023-02-23T23:27:09.611Z,20.50
2023-02-23T23:29:40.502Z,20.32
2023-02-23T23:32:11.549Z,20.08
2023-02-23T23:34:42.989Z,20.03
2023-02-23T23:37:15.306Z,20.76
2023-02-23T23:39:46.816Z,20.62
2023-02-23T23:42:17.781Z,21.17
2023-02-23T23:44:49.050Z,21.12
2023-02-23T23:47:20.225Z,20.81
2023-02-23T23:49:51.512Z,20.20
2023-02-23T23:52:22.523Z,19.70
2023-02-23T23:54:53.489Z,19.62
2023-02-23T23:57:24.626Z,19.68
2023-02-23T23:59:57.822Z,19.48
